Alta, California
Current Conditions -  °F | °C
As of 10:52 PM on Wednesday 17 Dec 2014 (Local Time) from KBLU Reporting Station
Overcast Overcast  
Wind Chill: 26°   Ceiling: 800
Heat Index: 33°   Visibility: 10mi
Dew Point: 30°   Wind: 8mph
Humidity: 89%   Direction: 150°SSE
Pressure: 30.07"   Gusts: NA
Location:  39.21°N, 120.81°W
Report Text: KBLU 180652Z AUTO 15007KT 10SM OVC008 01/M01 A3007 RMK AO2 CIG 005V011 SLP193 T00061011
Loading
Personal Weather Stations






























Interactive Weather Map New forecast layout! Learn more

10-Day Weather Forecast

Advertisements
Track Severe Weather on mobile